createdAt,value
2022-09-28T00:01:55.753Z,2.67
2022-09-28T00:04:22.503Z,2.40
2022-09-28T00:06:49.241Z,2.13
2022-09-28T00:09:16.584Z,2.03
2022-09-28T00:11:46.164Z,1.87
2022-09-28T00:14:12.841Z,2.40
2022-09-28T00:16:42.229Z,2.13
2022-09-28T00:19:11.354Z,1.90
2022-09-28T00:21:38.794Z,1.90
2022-09-28T00:24:12.306Z,1.70
2022-09-28T00:26:44.785Z,1.70
2022-09-28T00:29:16.554Z,2.27
2022-09-28T00:31:43.490Z,2.30
2022-09-28T00:34:10.182Z,1.73
2022-09-28T00:36:36.942Z,2.20
2022-09-28T00:39:07.728Z,1.73
2022-09-28T00:41:34.600Z,1.80
2022-09-28T00:44:25.957Z,1.80
2022-09-28T00:47:02.122Z,1.90
2022-09-28T00:49:41.766Z,1.90
2022-09-28T00:52:08.438Z,1.90
2022-09-28T00:54:37.674Z,2.10
2022-09-28T00:57:04.266Z,1.80
2022-09-28T00:59:34.091Z,1.73
2022-09-28T01:02:01.608Z,1.83
2022-09-28T01:04:30.017Z,1.87
2022-09-28T01:06:57.829Z,2.23
2022-09-28T01:09:27.403Z,1.67
2022-09-28T01:11:55.109Z,2.00
2022-09-28T01:14:22.835Z,2.43
2022-09-28T01:16:58.379Z,1.70
2022-09-28T01:20:00.920Z,1.90
2022-09-28T01:22:48.922Z,1.80
2022-09-28T01:25:37.237Z,1.97
2022-09-28T01:28:12.016Z,2.10
2022-09-28T01:30:57.115Z,2.07
2022-09-28T01:33:26.250Z,2.23
2022-09-28T01:35:55.430Z,2.00
2022-09-28T01:38:23.695Z,2.07
2022-09-28T01:40:50.459Z,2.13
2022-09-28T01:43:23.635Z,2.20
2022-09-28T01:45:53.511Z,2.07
2022-09-28T01:48:24.415Z,2.00
2022-09-28T01:50:52.313Z,2.17
2022-09-28T01:53:23.052Z,2.43
2022-09-28T01:55:58.633Z,2.10
2022-09-28T01:59:14.348Z,2.60
2022-09-28T02:01:47.523Z,2.23
2022-09-28T02:04:19.623Z,2.50
2022-09-28T02:06:57.197Z,2.47
2022-09-28T02:09:33.817Z,2.60
2022-09-28T02:12:07.653Z,3.27
2022-09-28T02:14:34.525Z,2.40
2022-09-28T02:17:02.054Z,2.57
2022-09-28T02:19:31.096Z,2.73
2022-09-28T02:22:02.001Z,2.30
2022-09-28T02:24:33.464Z,2.40
2022-09-28T02:27:00.718Z,2.70
2022-09-28T02:29:32.583Z,2.93
2022-09-28T02:31:59.251Z,2.40
2022-09-28T02:34:26.149Z,2.50
2022-09-28T02:36:55.068Z,2.50
2022-09-28T02:39:23.924Z,3.07
2022-09-28T02:41:53.573Z,2.93
2022-09-28T02:45:05.399Z,2.73
2022-09-28T02:48:03.738Z,2.60
2022-09-28T02:50:44.884Z,3.20
2022-09-28T02:53:26.849Z,3.20
2022-09-28T02:55:56.548Z,2.80
2022-09-28T02:58:39.407Z,2.93
2022-09-28T03:01:23.193Z,2.73
2022-09-28T03:04:05.138Z,2.60
2022-09-28T03:06:45.941Z,3.40
2022-09-28T03:09:15.544Z,2.73
2022-09-28T03:11:53.523Z,3.10
2022-09-28T03:14:22.697Z,3.33
2022-09-28T03:16:53.182Z,3.23
2022-09-28T03:19:22.215Z,3.30
2022-09-28T03:21:49.270Z,3.03
2022-09-28T03:24:16.008Z,3.07
2022-09-28T03:26:42.571Z,3.00
2022-09-28T03:29:12.858Z,3.27
2022-09-28T03:31:39.833Z,3.27
2022-09-28T03:34:06.716Z,2.93
2022-09-28T03:36:35.560Z,2.60
2022-09-28T03:39:03.235Z,3.00
2022-09-28T03:41:32.454Z,3.37
2022-09-28T03:43:59.091Z,3.10
2022-09-28T03:46:27.820Z,3.13
2022-09-28T03:49:00.874Z,2.77
2022-09-28T03:51:28.817Z,2.87
2022-09-28T03:53:57.681Z,2.80
2022-09-28T03:56:24.256Z,3.60
2022-09-28T03:58:50.933Z,2.93
2022-09-28T04:01:18.237Z,3.67
2022-09-28T04:03:46.642Z,3.17
2022-09-28T04:06:13.478Z,3.23
2022-09-28T04:08:40.151Z,2.57
2022-09-28T04:11:06.761Z,2.47
2022-09-28T04:13:33.694Z,2.87
2022-09-28T04:16:01.131Z,3.10
2022-09-28T04:18:30.011Z,2.90
2022-09-28T04:21:35.172Z,2.13
2022-09-28T04:24:10.402Z,2.30
2022-09-28T04:26:37.070Z,3.00
2022-09-28T04:29:19.530Z,2.47
2022-09-28T04:31:53.946Z,2.60
2022-09-28T04:34:25.168Z,2.90
2022-09-28T04:36:51.703Z,2.73
2022-09-28T04:39:21.734Z,2.60
2022-09-28T04:41:51.591Z,2.53
2022-09-28T04:44:18.715Z,2.80
2022-09-28T04:46:47.121Z,2.40
2022-09-28T04:49:31.296Z,2.50
2022-09-28T04:52:06.996Z,3.00
2022-09-28T04:54:34.715Z,3.47
2022-09-28T04:57:01.989Z,3.17
2022-09-28T04:59:28.583Z,2.27
2022-09-28T05:01:55.243Z,2.67
2022-09-28T05:04:40.950Z,2.53
2022-09-28T05:07:41.464Z,3.20
2022-09-28T05:10:08.385Z,2.77
2022-09-28T05:12:37.017Z,2.93
2022-09-28T05:15:03.947Z,3.00
2022-09-28T05:17:31.704Z,3.10
2022-09-28T05:20:20.569Z,2.87
2022-09-28T05:22:47.186Z,3.20
2022-09-28T05:25:13.983Z,3.53
2022-09-28T05:27:58.062Z,3.30
2022-09-28T05:30:36.591Z,3.03
2022-09-28T05:33:27.612Z,3.67
2022-09-28T05:36:03.831Z,2.80
2022-09-28T05:38:30.838Z,3.10
2022-09-28T05:40:57.658Z,3.00
2022-09-28T05:43:24.298Z,3.33
2022-09-28T05:45:55.295Z,2.73
2022-09-28T05:48:22.927Z,3.20
2022-09-28T05:50:52.612Z,2.70
2022-09-28T05:53:20.039Z,3.10
2022-09-28T05:55:47.216Z,2.83
2022-09-28T05:58:13.848Z,2.77
2022-09-28T06:00:40.466Z,2.43
2022-09-28T06:03:09.650Z,2.37
2022-09-28T06:05:42.045Z,2.50
2022-09-28T06:08:10.472Z,2.37
2022-09-28T06:10:38.197Z,1.67
2022-09-28T06:13:05.061Z,1.87
2022-09-28T06:15:32.481Z,2.00
2022-09-28T06:18:03.555Z,1.77
2022-09-28T06:20:41.770Z,1.83
2022-09-28T06:23:13.076Z,1.43
2022-09-28T06:25:39.914Z,1.53
2022-09-28T06:28:07.850Z,1.70
2022-09-28T06:30:35.039Z,1.20
2022-09-28T06:33:01.947Z,1.97
2022-09-28T06:35:31.024Z,1.33
2022-09-28T06:37:58.419Z,1.20
2022-09-28T06:40:25.208Z,1.23
2022-09-28T06:43:14.844Z,1.37
2022-09-28T06:45:59.834Z,1.50
2022-09-28T06:48:29.218Z,1.67
2022-09-28T06:50:56.547Z,1.80
2022-09-28T06:53:38.341Z,2.00
2022-09-28T06:56:10.434Z,2.20
2022-09-28T06:58:37.093Z,2.03
2022-09-28T07:01:03.999Z,2.37
2022-09-28T07:03:40.656Z,2.20
2022-09-28T07:06:26.722Z,2.10
2022-09-28T07:09:32.147Z,2.30
2022-09-28T07:12:20.729Z,2.07
2022-09-28T07:15:00.359Z,2.70
2022-09-28T07:17:28.277Z,2.60
2022-09-28T07:20:03.172Z,2.80
2022-09-28T07:22:43.127Z,2.70
2022-09-28T07:25:14.744Z,2.67
2022-09-28T07:28:02.706Z,2.67
2022-09-28T07:31:07.704Z,3.27
2022-09-28T07:33:55.175Z,2.77
2022-09-28T07:36:31.516Z,3.47
2022-09-28T07:38:58.293Z,3.00
2022-09-28T07:41:32.545Z,3.00
2022-09-28T07:44:05.925Z,3.73
2022-09-28T07:46:34.552Z,2.60
2022-09-28T07:49:08.481Z,3.57
2022-09-28T07:52:07.199Z,2.70
2022-09-28T07:54:44.725Z,2.77
2022-09-28T07:57:24.260Z,3.73
2022-09-28T08:00:06.121Z,3.40
2022-09-28T08:02:43.518Z,2.97
2022-09-28T08:05:12.692Z,2.83
2022-09-28T08:07:39.316Z,3.37
2022-09-28T08:10:08.782Z,2.70
2022-09-28T08:13:04.752Z,2.70
2022-09-28T08:16:00.513Z,3.40
2022-09-28T08:18:48.749Z,3.40
2022-09-28T08:21:33.866Z,3.77
2022-09-28T08:24:00.741Z,3.93
2022-09-28T08:26:28.903Z,3.00
2022-09-28T08:28:55.564Z,2.93
2022-09-28T08:31:51.781Z,2.50
2022-09-28T08:34:34.140Z,2.90
2022-09-28T08:37:22.507Z,2.40
2022-09-28T08:40:17.344Z,3.05
2022-09-28T08:43:04.699Z,3.00
2022-09-28T08:45:50.022Z,3.80
2022-09-28T08:48:51.795Z,3.35
2022-09-28T08:51:48.278Z,2.83
2022-09-28T08:54:24.517Z,2.20
2022-09-28T08:57:12.802Z,2.42
2022-09-28T08:59:45.739Z,2.00
2022-09-28T09:02:29.140Z,2.13
2022-09-28T09:05:14.654Z,2.30
2022-09-28T09:08:50.079Z,2.28
2022-09-28T09:11:49.253Z,2.50
2022-09-28T09:15:04.930Z,2.30
2022-09-28T09:17:49.800Z,2.03
2022-09-28T09:20:37.814Z,2.27
2022-09-28T09:23:17.199Z,2.40
2022-09-28T09:25:49.725Z,2.13
2022-09-28T09:28:31.782Z,2.85
2022-09-28T09:31:29.279Z,2.88
2022-09-28T09:34:09.293Z,2.85
2022-09-28T09:37:03.309Z,2.15
2022-09-28T09:40:00.741Z,2.10
2022-09-28T09:43:21.727Z,2.30
2022-09-28T09:46:14.024Z,2.40
2022-09-28T09:49:10.629Z,2.60
2022-09-28T09:51:39.227Z,2.30
2022-09-28T09:54:11.578Z,2.30
2022-09-28T09:56:48.637Z,2.17
2022-09-28T09:59:39.482Z,2.40
2022-09-28T10:02:23.053Z,1.92
2022-09-28T10:05:04.945Z,2.50
2022-09-28T10:07:50.778Z,1.80
2022-09-28T10:10:34.576Z,2.30
2022-09-28T10:13:08.598Z,2.03
2022-09-28T10:15:36.450Z,2.42
2022-09-28T10:18:19.393Z,2.22
2022-09-28T10:21:04.489Z,2.30
2022-09-28T10:23:42.849Z,2.17
2022-09-28T10:26:18.732Z,2.15
2022-09-28T10:28:52.111Z,1.70
2022-09-28T10:31:37.716Z,1.70
2022-09-28T10:34:08.882Z,2.03
2022-09-28T10:36:52.778Z,1.80
2022-09-28T10:39:31.667Z,1.73
2022-09-28T10:42:04.267Z,1.63
2022-09-28T10:44:33.622Z,2.05
2022-09-28T10:47:07.904Z,1.30
2022-09-28T10:49:47.111Z,1.58
2022-09-28T10:52:32.423Z,1.73
2022-09-28T10:54:59.522Z,1.80
2022-09-28T10:57:36.608Z,1.70
2022-09-28T11:00:09.165Z,1.60
2022-09-28T11:02:47.777Z,1.95
2022-09-28T11:05:23.825Z,1.88
2022-09-28T11:07:55.448Z,1.52
2022-09-28T11:10:28.775Z,1.90
2022-09-28T11:13:00.028Z,1.85
2022-09-28T11:15:34.141Z,1.85
2022-09-28T11:18:25.422Z,1.33
2022-09-28T11:20:52.336Z,1.33
2022-09-28T11:23:32.618Z,1.15
2022-09-28T11:26:17.707Z,1.88
2022-09-28T11:28:45.445Z,2.10
2022-09-28T11:31:27.401Z,2.00
2022-09-28T11:34:12.219Z,1.90
2022-09-28T11:37:09.665Z,1.90
2022-09-28T11:40:08.347Z,1.90
2022-09-28T11:42:59.385Z,1.80
2022-09-28T11:45:25.998Z,1.95
2022-09-28T11:48:03.185Z,1.63
2022-09-28T11:50:35.209Z,1.63
2022-09-28T11:53:04.717Z,1.60
2022-09-28T11:55:51.707Z,1.75
2022-09-28T11:58:33.324Z,1.33
2022-09-28T12:01:23.396Z,1.33
2022-09-28T12:04:52.348Z,1.30
2022-09-28T12:07:40.897Z,1.33
2022-09-28T12:10:48.629Z,1.52
2022-09-28T12:13:48.459Z,1.88
2022-09-28T12:16:45.693Z,1.30
2022-09-28T12:19:18.382Z,1.70
2022-09-28T12:22:03.549Z,2.08
2022-09-28T12:24:58.868Z,2.00
2022-09-28T12:27:48.459Z,2.50
2022-09-28T12:30:22.344Z,1.70
2022-09-28T12:33:15.547Z,1.45
2022-09-28T12:36:07.142Z,1.60
2022-09-28T12:42:04.287Z,1.35
2022-09-28T12:44:36.771Z,3.60
2022-09-28T12:47:18.473Z,2.75
2022-09-28T12:50:37.675Z,2.08
2022-09-28T12:53:09.245Z,1.70
2022-09-28T12:55:51.075Z,2.13
2022-09-28T12:58:27.604Z,3.20
2022-09-28T13:01:09.582Z,2.45
2022-09-28T13:03:45.890Z,1.90
2022-09-28T13:06:25.931Z,2.30
2022-09-28T13:09:12.659Z,2.60
2022-09-28T13:11:58.805Z,2.70
2022-09-28T13:14:53.965Z,1.85
2022-09-28T13:17:57.817Z,1.90
2022-09-28T13:20:47.977Z,2.33
2022-09-28T13:23:27.425Z,1.90
2022-09-28T13:26:04.964Z,1.98
2022-09-28T13:28:32.232Z,2.25
2022-09-28T13:33:39.043Z,2.00
2022-09-28T13:36:27.379Z,2.20
2022-09-28T13:39:00.118Z,1.85
2022-09-28T13:41:40.403Z,2.22
2022-09-28T13:44:23.930Z,2.55
2022-09-28T13:47:06.964Z,1.98
2022-09-28T13:49:40.404Z,2.03
2022-09-28T13:52:28.686Z,1.70
2022-09-28T13:55:27.956Z,1.63
2022-09-28T13:58:01.098Z,1.67
2022-09-28T14:00:50.534Z,2.00
2022-09-28T14:03:44.533Z,2.30
2022-09-28T14:06:27.824Z,1.80
2022-09-28T14:09:12.885Z,2.13
2022-09-28T14:11:43.210Z,1.60
2022-09-28T14:14:13.906Z,1.67
2022-09-28T14:16:41.392Z,1.88
2022-09-28T14:19:28.423Z,1.83
2022-09-28T14:22:18.318Z,2.00
2022-09-28T14:25:07.852Z,1.98
2022-09-28T14:27:37.405Z,1.80
2022-09-28T14:30:13.255Z,1.73
2022-09-28T14:32:41.213Z,1.50
2022-09-28T14:35:23.404Z,1.65
2022-09-28T14:38:08.546Z,1.33
2022-09-28T14:41:12.904Z,1.30
2022-09-28T14:43:45.732Z,1.08
2022-09-28T14:46:13.098Z,1.23
2022-09-28T14:48:57.058Z,1.20
2022-09-28T14:51:26.681Z,1.40
2022-09-28T14:54:10.486Z,1.40
2022-09-28T14:56:49.609Z,1.20
2022-09-28T14:59:27.634Z,0.90
2022-09-28T15:01:55.583Z,1.17
2022-09-28T15:04:23.485Z,1.00
2022-09-28T15:06:51.574Z,1.30
2022-09-28T15:09:37.284Z,1.33
2022-09-28T15:12:27.516Z,1.15
2022-09-28T15:14:59.000Z,1.08
2022-09-28T15:17:38.490Z,1.30
2022-09-28T15:20:25.662Z,1.20
2022-09-28T15:22:58.399Z,1.02
2022-09-28T15:25:27.224Z,1.30
2022-09-28T15:27:55.850Z,1.23
2022-09-28T15:30:32.167Z,1.15
2022-09-28T15:33:18.862Z,1.50
2022-09-28T15:35:49.519Z,1.23
2022-09-28T15:38:17.457Z,1.25
2022-09-28T15:40:44.713Z,1.08
2022-09-28T15:43:37.905Z,1.23
2022-09-28T15:46:18.596Z,1.10
2022-09-28T15:48:55.139Z,1.10
2022-09-28T15:51:22.274Z,2.13
2022-09-28T15:54:12.352Z,1.30
2022-09-28T15:56:59.823Z,1.33
2022-09-28T15:59:30.928Z,1.38
2022-09-28T16:02:13.234Z,1.30
2022-09-28T16:04:50.303Z,1.60
2022-09-28T16:07:23.848Z,1.60
2022-09-28T16:10:05.046Z,1.50
2022-09-28T16:12:37.849Z,1.40
2022-09-28T16:15:20.364Z,1.25
2022-09-28T16:18:00.542Z,1.58
2022-09-28T16:20:36.340Z,1.45
2022-09-28T16:23:29.467Z,1.70
2022-09-28T16:25:58.709Z,1.70
2022-09-28T16:28:37.790Z,1.60
2022-09-28T16:31:12.900Z,1.30
2022-09-28T16:33:52.194Z,1.33
2022-09-28T16:36:22.383Z,1.70
2022-09-28T16:38:49.270Z,1.55
2022-09-28T16:41:19.437Z,1.40
2022-09-28T16:43:46.107Z,1.55
2022-09-28T16:46:17.675Z,1.55
2022-09-28T16:48:51.262Z,1.60
2022-09-28T16:51:18.566Z,1.63
2022-09-28T16:54:03.698Z,1.48
2022-09-28T16:56:31.147Z,1.63
2022-09-28T16:58:57.739Z,1.40
2022-09-28T17:01:27.022Z,1.65
2022-09-28T17:04:01.143Z,1.58
2022-09-28T17:06:27.722Z,1.73
2022-09-28T17:08:58.370Z,1.70
2022-09-28T17:11:25.367Z,1.50
2022-09-28T17:13:52.269Z,1.67
2022-09-28T17:19:20.398Z,1.75
2022-09-28T17:21:47.341Z,1.88
2022-09-28T17:24:13.915Z,1.60
2022-09-28T17:26:43.768Z,1.80
2022-09-28T17:29:14.294Z,1.70
2022-09-28T17:31:42.595Z,1.80
2022-09-28T17:34:10.098Z,1.63
2022-09-28T17:36:38.960Z,1.80
2022-09-28T17:39:06.557Z,1.55
2022-09-28T17:41:34.238Z,1.67
2022-09-28T17:44:03.321Z,1.55
2022-09-28T17:46:37.003Z,1.90
2022-09-28T17:49:04.740Z,1.80
2022-09-28T17:51:34.553Z,1.40
2022-09-28T17:54:01.841Z,2.20
2022-09-28T17:56:32.082Z,1.48
2022-09-28T17:59:06.528Z,1.80
2022-09-28T18:01:37.109Z,1.77
2022-09-28T18:04:04.885Z,3.08
2022-09-28T18:06:34.585Z,5.75
2022-09-28T18:09:03.078Z,5.80
2022-09-28T18:11:30.200Z,2.53
2022-09-28T18:13:56.763Z,2.38
2022-09-28T18:16:23.351Z,2.17
2022-09-28T18:18:50.085Z,2.35
2022-09-28T18:21:16.813Z,2.17
2022-09-28T18:23:43.351Z,2.13
2022-09-28T18:26:13.620Z,2.17
2022-09-28T18:28:40.718Z,2.08
2022-09-28T18:31:11.557Z,2.20
2022-09-28T18:33:38.458Z,2.40
2022-09-28T18:36:05.597Z,2.20
2022-09-28T18:38:32.471Z,2.67
2022-09-28T18:41:07.152Z,2.00
2022-09-28T18:43:36.317Z,2.22
2022-09-28T18:46:09.921Z,2.13
2022-09-28T18:48:43.918Z,2.45
2022-09-28T18:51:11.333Z,2.35
2022-09-28T18:53:40.899Z,2.10
2022-09-28T18:56:10.747Z,2.47
2022-09-28T18:58:38.477Z,2.47
2022-09-28T19:01:28.921Z,3.97
2022-09-28T19:03:56.408Z,3.60
2022-09-28T19:06:23.103Z,3.10
2022-09-28T19:08:55.602Z,3.15
2022-09-28T19:11:22.435Z,3.03
2022-09-28T19:13:49.001Z,2.80
2022-09-28T19:16:20.864Z,3.07
2022-09-28T19:18:47.883Z,3.03
2022-09-28T19:21:14.783Z,3.03
2022-09-28T19:23:48.985Z,2.85
2022-09-28T19:26:21.182Z,2.78
2022-09-28T19:28:48.170Z,2.30
2022-09-28T19:31:17.074Z,2.35
2022-09-28T19:33:46.278Z,2.90
2022-09-28T19:36:14.816Z,3.10
2022-09-28T19:38:41.578Z,3.15
2022-09-28T19:41:12.429Z,2.63
2022-09-28T19:43:43.663Z,3.15
2022-09-28T19:46:10.738Z,3.35
2022-09-28T19:48:37.353Z,2.80
2022-09-28T19:51:05.758Z,2.77
2022-09-28T19:53:38.387Z,2.92
2022-09-28T19:56:07.313Z,2.80
2022-09-28T19:58:35.702Z,2.78
2022-09-28T20:01:06.487Z,2.83
2022-09-28T20:03:33.961Z,2.83
2022-09-28T20:06:01.619Z,2.53
2022-09-28T20:08:30.061Z,3.15
2022-09-28T20:10:57.327Z,2.85
2022-09-28T20:13:24.578Z,3.30
2022-09-28T20:15:51.241Z,3.60
2022-09-28T20:18:20.225Z,3.95
2022-09-28T20:20:46.761Z,3.33
2022-09-28T20:23:13.688Z,3.30
2022-09-28T20:25:40.284Z,3.00
2022-09-28T20:28:06.999Z,3.20
2022-09-28T20:30:33.581Z,3.28
2022-09-28T20:33:00.268Z,3.05
2022-09-28T20:35:33.015Z,2.67
2022-09-28T20:38:07.810Z,2.70
2022-09-28T20:40:38.053Z,2.90
2022-09-28T20:43:06.324Z,3.07
2022-09-28T20:45:35.150Z,3.37
2022-09-28T20:48:06.296Z,3.00
2022-09-28T20:50:33.738Z,2.75
2022-09-28T20:53:01.035Z,2.70
2022-09-28T20:55:27.642Z,3.05
2022-09-28T20:57:54.274Z,3.00
2022-09-28T21:00:21.181Z,2.87
2022-09-28T21:02:51.586Z,2.72
2022-09-28T21:05:20.810Z,2.50
2022-09-28T21:07:47.454Z,3.43
2022-09-28T21:10:14.050Z,3.80
2022-09-28T21:12:40.687Z,4.07
2022-09-28T21:15:07.624Z,3.78
2022-09-28T21:17:34.246Z,3.87
2022-09-28T21:20:04.087Z,4.17
2022-09-28T21:22:30.873Z,3.73
2022-09-28T21:24:57.433Z,3.80
2022-09-28T21:27:24.053Z,4.07
2022-09-28T21:29:50.652Z,3.97
2022-09-28T21:32:17.315Z,4.37
2022-09-28T21:34:43.958Z,3.87
2022-09-28T21:37:10.562Z,3.83
2022-09-28T21:39:39.735Z,3.67
2022-09-28T21:42:06.512Z,4.10
2022-09-28T21:44:33.096Z,3.60
2022-09-28T21:46:59.677Z,3.90
2022-09-28T21:49:26.315Z,3.53
2022-09-28T21:51:52.948Z,4.00
2022-09-28T21:54:19.797Z,3.77
2022-09-28T21:56:46.427Z,3.80
2022-09-28T21:59:13.134Z,3.53
2022-09-28T22:01:41.710Z,3.67
2022-09-28T22:04:10.936Z,3.57
2022-09-28T22:06:37.665Z,3.30
2022-09-28T22:09:05.325Z,4.20
2022-09-28T22:11:32.037Z,3.80
2022-09-28T22:13:59.247Z,3.53
2022-09-28T22:16:30.285Z,3.57
2022-09-28T22:18:57.609Z,3.17
2022-09-28T22:21:28.759Z,3.33
2022-09-28T22:24:00.111Z,3.33
2022-09-28T22:26:27.306Z,3.57
2022-09-28T22:28:55.578Z,4.00
2022-09-28T22:31:33.726Z,3.27
2022-09-28T22:34:00.361Z,3.43
2022-09-28T22:36:26.964Z,3.50
2022-09-28T22:38:57.024Z,3.17
2022-09-28T22:41:24.398Z,3.77
2022-09-28T22:43:54.849Z,3.80
2022-09-28T22:46:26.219Z,3.27
2022-09-28T22:48:54.516Z,3.63
2022-09-28T22:51:21.230Z,3.53
2022-09-28T22:53:47.867Z,3.20
2022-09-28T22:56:18.444Z,3.20
2022-09-28T22:58:45.794Z,4.00
2022-09-28T23:01:25.278Z,3.80
2022-09-28T23:03:54.819Z,4.07
2022-09-28T23:06:24.687Z,3.83
2022-09-28T23:08:51.377Z,3.87
2022-09-28T23:11:18.323Z,3.63
2022-09-28T23:13:55.388Z,3.43
2022-09-28T23:16:24.825Z,4.10
2022-09-28T23:18:51.634Z,3.93
2022-09-28T23:21:19.735Z,2.83
2022-09-28T23:23:46.753Z,3.50
2022-09-28T23:26:15.428Z,3.87
2022-09-28T23:28:44.890Z,3.77
2022-09-28T23:31:15.923Z,3.93
2022-09-28T23:33:42.695Z,3.47
2022-09-28T23:36:09.299Z,4.23
2022-09-28T23:38:38.378Z,3.50
2022-09-28T23:41:05.418Z,3.80
2022-09-28T23:43:32.142Z,3.73
2022-09-28T23:46:01.258Z,3.33
2022-09-28T23:48:27.928Z,3.30
2022-09-28T23:50:54.484Z,3.47
2022-09-28T23:53:21.084Z,4.07
2022-09-28T23:55:47.843Z,3.40
2022-09-28T23:58:14.500Z,3.60
